Etusivu
METAR-TAF:

METAR-TAF

Lentoasemat :

Tunis, Tunisia

Leveyspiiri: 36-50N, Pituuspiiri: 010-14E, korkeus merenpinnasta: 3 m

Tämänhetkinen sää

Tämä raportti tehtiin 21 minuuttia sitten, kello 12.00 UTC
Tuuli 8 kn luoteesta, vaihdellen lännen ja pohjoisen/luoteen välillä
Lämpötila 29°C
Kosteus 52%
Ilmanpaine 1021 hPa
Näkyvyys 10 km tai enemmän
Hajanaisia pilviä 2600 ft:n korkeudessa

METAR: DTTA 231200Z 31008KT 270V340 9999 SCT026 29/18 Q1021 NOSIG

Aika: 13:21 (12:21 UTC)

Sääennuste

Tämä raportti tehtiin 1 tunti ja 21 minuuttia sitten, kello 11.00 UTC
Ennuste voimassa 23. päivästä klo 12 UTC - 24. päivään klo 12 UTC
Tuuli 10 kn luoteesta
Näkyvyys 10 km tai enemmän
Hajanaisia pilviä 2600 ft:n korkeudessa
Tulossa
23. päivästä klo 21 UTC - 23. päivään klo 23 UTC
Tuuli 5 kn lännestä/lounaasta
Tulossa
24. päivästä klo 10 UTC - 24. päivään klo 12 UTC
Tuuli 13 kn luoteesta

TAF: DTTA 231100Z 2312/2412 31010KT 9999 SCT026 BECMG 2321/2323 25005KT BECMG 2410/2412 31013KT

Säähavainnot ja -ennusteet yli 4000 lentoasemalta (METAR- ja TAF-raportit).

Käytössä olevat sääasemat on merkitty karttaan keltaisilla ja punaisilla pisteillä.

Aseta hiiri pisteen päälle nähdäksesi sääaseman nimen.

Klikkaa sitten nähdäksesi säähavainnot ja -ennusteet.

Kartan vaihtaminen: klikkaa mustalla rastilla varustettuja vihreitä pisteitä, niin voit zoomata sisään; viivalla varustettua vihreää pistettä, niin voit zoomata ulos tai vihreitä nuolia, niin pääset viereisille kartoille.


METAR-TAF: